sensor_id;sensor_type;location;lat;lon;timestamp;P1;durP1;ratioP1;P2;durP2;ratioP2
53281;SDS011;39167;52.794;6.892;2022-10-19T00:01:37;3.38;;;1.35;;
53281;SDS011;39167;52.794;6.892;2022-10-19T00:04:02;11.73;;;2.47;;
53281;SDS011;39167;52.794;6.892;2022-10-19T00:06:29;4.78;;;1.80;;
53281;SDS011;39167;52.794;6.892;2022-10-19T00:09:01;5.93;;;1.80;;
53281;SDS011;39167;52.794;6.892;2022-10-19T00:11:29;5.88;;;2.08;;
53281;SDS011;39167;52.794;6.892;2022-10-19T00:13:56;6.85;;;1.75;;
53281;SDS011;39167;52.794;6.892;2022-10-19T00:16:23;4.80;;;1.70;;
53281;SDS011;39167;52.794;6.892;2022-10-19T00:18:51;6.40;;;1.65;;
53281;SDS011;39167;52.794;6.892;2022-10-19T00:21:19;6.05;;;2.03;;
53281;SDS011;39167;52.794;6.892;2022-10-19T00:23:45;6.28;;;2.20;;
53281;SDS011;39167;52.794;6.892;2022-10-19T00:26:12;7.43;;;3.13;;
53281;SDS011;39167;52.794;6.892;2022-10-19T00:28:38;5.50;;;1.75;;
53281;SDS011;39167;52.794;6.892;2022-10-19T00:31:04;5.45;;;1.80;;
53281;SDS011;39167;52.794;6.892;2022-10-19T00:33:31;5.45;;;1.60;;
53281;SDS011;39167;52.794;6.892;2022-10-19T00:35:57;8.43;;;1.90;;
53281;SDS011;39167;52.794;6.892;2022-10-19T00:38:23;7.20;;;2.15;;
53281;SDS011;39167;52.794;6.892;2022-10-19T00:40:49;4.43;;;1.83;;
53281;SDS011;39167;52.794;6.892;2022-10-19T00:43:25;7.70;;;2.53;;
53281;SDS011;39167;52.794;6.892;2022-10-19T00:45:54;6.97;;;2.42;;
53281;SDS011;39167;52.794;6.892;2022-10-19T00:48:22;5.38;;;1.90;;
53281;SDS011;39167;52.794;6.892;2022-10-19T00:50:52;5.90;;;1.83;;
53281;SDS011;39167;52.794;6.892;2022-10-19T00:53:20;7.68;;;2.15;;
53281;SDS011;39167;52.794;6.892;2022-10-19T00:55:47;7.03;;;2.00;;
53281;SDS011;39167;52.794;6.892;2022-10-19T00:58:12;7.53;;;2.35;;
53281;SDS011;39167;52.794;6.892;2022-10-19T01:00:38;5.93;;;1.75;;
53281;SDS011;39167;52.794;6.892;2022-10-19T01:03:04;5.15;;;1.95;;
53281;SDS011;39167;52.794;6.892;2022-10-19T01:05:31;6.10;;;2.03;;
53281;SDS011;39167;52.794;6.892;2022-10-19T01:07:58;6.95;;;1.75;;
53281;SDS011;39167;52.794;6.892;2022-10-19T01:10:29;3.50;;;1.90;;
53281;SDS011;39167;52.794;6.892;2022-10-19T01:15:53;4.80;;;1.80;;
53281;SDS011;39167;52.794;6.892;2022-10-19T01:21:17;4.88;;;1.98;;
53281;SDS011;39167;52.794;6.892;2022-10-19T01:34:58;5.80;;;2.55;;
53281;SDS011;39167;52.794;6.892;2022-10-19T01:47:53;5.97;;;2.08;;
53281;SDS011;39167;52.794;6.892;2022-10-19T01:50:27;5.78;;;2.38;;
53281;SDS011;39167;52.794;6.892;2022-10-19T01:52:59;5.38;;;2.00;;
53281;SDS011;39167;52.794;6.892;2022-10-19T01:55:28;8.43;;;2.13;;
53281;SDS011;39167;52.794;6.892;2022-10-19T01:58:03;8.98;;;2.40;;
53281;SDS011;39167;52.794;6.892;2022-10-19T02:00:31;7.82;;;2.33;;
53281;SDS011;39167;52.794;6.892;2022-10-19T02:03:01;7.30;;;2.63;;
53281;SDS011;39167;52.794;6.892;2022-10-19T02:05:30;6.68;;;2.00;;
53281;SDS011;39167;52.794;6.892;2022-10-19T02:07:58;9.07;;;2.42;;
53281;SDS011;39167;52.794;6.892;2022-10-19T02:10:27;7.57;;;2.47;;
53281;SDS011;39167;52.794;6.892;2022-10-19T02:12:55;9.10;;;2.20;;
53281;SDS011;39167;52.794;6.892;2022-10-19T02:15:22;11.00;;;2.60;;
53281;SDS011;39167;52.794;6.892;2022-10-19T02:17:51;8.63;;;4.18;;
53281;SDS011;39167;52.794;6.892;2022-10-19T02:20:21;6.93;;;2.57;;
53281;SDS011;39167;52.794;6.892;2022-10-19T02:22:47;7.38;;;2.40;;
53281;SDS011;39167;52.794;6.892;2022-10-19T02:25:14;9.13;;;2.25;;
53281;SDS011;39167;52.794;6.892;2022-10-19T02:27:40;6.80;;;2.47;;
53281;SDS011;39167;52.794;6.892;2022-10-19T02:30:09;7.35;;;2.58;;
53281;SDS011;39167;52.794;6.892;2022-10-19T02:32:38;8.18;;;2.38;;
53281;SDS011;39167;52.794;6.892;2022-10-19T02:35:04;3.80;;;2.20;;
53281;SDS011;39167;52.794;6.892;2022-10-19T02:37:31;8.48;;;2.30;;
53281;SDS011;39167;52.794;6.892;2022-10-19T02:39:57;7.43;;;1.92;;
53281;SDS011;39167;52.794;6.892;2022-10-19T02:42:31;7.18;;;2.47;;
53281;SDS011;39167;52.794;6.892;2022-10-19T02:45:06;6.97;;;2.65;;
53281;SDS011;39167;52.794;6.892;2022-10-19T02:47:37;7.45;;;2.75;;
53281;SDS011;39167;52.794;6.892;2022-10-19T02:50:10;5.80;;;2.45;;
53281;SDS011;39167;52.794;6.892;2022-10-19T02:52:37;7.47;;;2.17;;
53281;SDS011;39167;52.794;6.892;2022-10-19T02:55:06;10.63;;;3.22;;
53281;SDS011;39167;52.794;6.892;2022-10-19T02:57:32;10.70;;;2.78;;
53281;SDS011;39167;52.794;6.892;2022-10-19T02:59:58;9.88;;;3.00;;
53281;SDS011;39167;52.794;6.892;2022-10-19T03:02:24;7.18;;;2.47;;
53281;SDS011;39167;52.794;6.892;2022-10-19T03:04:50;6.10;;;2.45;;
53281;SDS011;39167;52.794;6.892;2022-10-19T03:07:17;7.53;;;2.03;;
53281;SDS011;39167;52.794;6.892;2022-10-19T03:09:43;8.73;;;2.08;;
53281;SDS011;39167;52.794;6.892;2022-10-19T03:12:10;7.72;;;2.75;;
53281;SDS011;39167;52.794;6.892;2022-10-19T03:14:36;6.30;;;2.40;;
53281;SDS011;39167;52.794;6.892;2022-10-19T03:17:02;7.65;;;3.10;;
53281;SDS011;39167;52.794;6.892;2022-10-19T03:19:28;6.78;;;2.08;;
53281;SDS011;39167;52.794;6.892;2022-10-19T03:21:54;5.00;;;2.35;;
53281;SDS011;39167;52.794;6.892;2022-10-19T03:24:20;8.43;;;2.55;;
53281;SDS011;39167;52.794;6.892;2022-10-19T03:26:46;8.75;;;2.80;;
53281;SDS011;39167;52.794;6.892;2022-10-19T03:29:12;7.10;;;2.58;;
53281;SDS011;39167;52.794;6.892;2022-10-19T03:31:38;8.35;;;2.67;;
53281;SDS011;39167;52.794;6.892;2022-10-19T03:34:03;4.97;;;2.03;;
53281;SDS011;39167;52.794;6.892;2022-10-19T03:36:30;9.20;;;2.78;;
53281;SDS011;39167;52.794;6.892;2022-10-19T03:38:59;5.38;;;2.40;;
53281;SDS011;39167;52.794;6.892;2022-10-19T03:41:27;5.47;;;2.28;;
53281;SDS011;39167;52.794;6.892;2022-10-19T03:43:54;7.35;;;2.22;;
53281;SDS011;39167;52.794;6.892;2022-10-19T03:46:21;8.13;;;2.70;;
53281;SDS011;39167;52.794;6.892;2022-10-19T03:48:47;5.90;;;2.72;;
53281;SDS011;39167;52.794;6.892;2022-10-19T03:51:14;10.30;;;2.60;;
53281;SDS011;39167;52.794;6.892;2022-10-19T03:56:14;7.97;;;2.83;;
53281;SDS011;39167;52.794;6.892;2022-10-19T03:58:42;4.47;;;2.00;;
53281;SDS011;39167;52.794;6.892;2022-10-19T04:01:10;7.18;;;2.33;;
53281;SDS011;39167;52.794;6.892;2022-10-19T04:03:37;6.22;;;2.47;;
53281;SDS011;39167;52.794;6.892;2022-10-19T04:06:04;6.55;;;2.42;;
53281;SDS011;39167;52.794;6.892;2022-10-19T04:08:34;8.52;;;2.75;;
53281;SDS011;39167;52.794;6.892;2022-10-19T04:11:05;9.27;;;3.33;;
53281;SDS011;39167;52.794;6.892;2022-10-19T04:13:33;6.60;;;2.55;;
53281;SDS011;39167;52.794;6.892;2022-10-19T04:15:59;9.35;;;2.95;;
53281;SDS011;39167;52.794;6.892;2022-10-19T04:18:25;5.47;;;2.50;;
53281;SDS011;39167;52.794;6.892;2022-10-19T04:20:54;4.40;;;2.08;;
53281;SDS011;39167;52.794;6.892;2022-10-19T04:23:21;4.85;;;2.38;;
53281;SDS011;39167;52.794;6.892;2022-10-19T04:25:47;8.02;;;2.60;;
53281;SDS011;39167;52.794;6.892;2022-10-19T04:28:13;14.70;;;7.22;;
53281;SDS011;39167;52.794;6.892;2022-10-19T04:30:38;9.88;;;3.63;;
53281;SDS011;39167;52.794;6.892;2022-10-19T04:33:04;11.13;;;3.65;;
53281;SDS011;39167;52.794;6.892;2022-10-19T04:35:30;7.00;;;3.10;;
53281;SDS011;39167;52.794;6.892;2022-10-19T04:37:55;10.70;;;3.10;;
53281;SDS011;39167;52.794;6.892;2022-10-19T04:40:23;11.07;;;3.10;;
53281;SDS011;39167;52.794;6.892;2022-10-19T04:42:48;8.00;;;3.00;;
53281;SDS011;39167;52.794;6.892;2022-10-19T04:45:14;9.23;;;2.95;;
53281;SDS011;39167;52.794;6.892;2022-10-19T04:47:40;7.43;;;3.47;;
53281;SDS011;39167;52.794;6.892;2022-10-19T04:50:05;6.57;;;2.75;;
53281;SDS011;39167;52.794;6.892;2022-10-19T04:52:31;10.25;;;3.47;;
53281;SDS011;39167;52.794;6.892;2022-10-19T04:54:59;6.05;;;2.83;;
53281;SDS011;39167;52.794;6.892;2022-10-19T04:57:25;11.50;;;3.47;;
53281;SDS011;39167;52.794;6.892;2022-10-19T04:59:50;12.00;;;2.80;;
53281;SDS011;39167;52.794;6.892;2022-10-19T05:02:16;7.57;;;3.25;;
53281;SDS011;39167;52.794;6.892;2022-10-19T05:04:42;10.02;;;2.88;;
53281;SDS011;39167;52.794;6.892;2022-10-19T05:07:07;7.68;;;2.92;;
53281;SDS011;39167;52.794;6.892;2022-10-19T05:09:33;8.35;;;2.92;;
53281;SDS011;39167;52.794;6.892;2022-10-19T05:11:59;8.13;;;3.00;;
53281;SDS011;39167;52.794;6.892;2022-10-19T05:14:24;8.52;;;2.72;;
53281;SDS011;39167;52.794;6.892;2022-10-19T05:16:50;15.57;;;2.97;;
53281;SDS011;39167;52.794;6.892;2022-10-19T05:19:16;6.35;;;2.28;;
53281;SDS011;39167;52.794;6.892;2022-10-19T05:21:42;10.93;;;2.90;;
53281;SDS011;39167;52.794;6.892;2022-10-19T05:24:09;8.75;;;2.67;;
53281;SDS011;39167;52.794;6.892;2022-10-19T05:26:37;6.30;;;2.22;;
53281;SDS011;39167;52.794;6.892;2022-10-19T05:29:03;7.47;;;2.53;;
53281;SDS011;39167;52.794;6.892;2022-10-19T05:31:31;6.70;;;2.63;;
53281;SDS011;39167;52.794;6.892;2022-10-19T05:33:58;7.75;;;2.20;;
53281;SDS011;39167;52.794;6.892;2022-10-19T05:36:25;5.57;;;2.35;;
53281;SDS011;39167;52.794;6.892;2022-10-19T05:38:53;6.70;;;2.25;;
53281;SDS011;39167;52.794;6.892;2022-10-19T05:41:21;10.57;;;2.75;;
53281;SDS011;39167;52.794;6.892;2022-10-19T05:43:52;7.60;;;2.33;;
53281;SDS011;39167;52.794;6.892;2022-10-19T05:46:19;9.15;;;2.08;;
53281;SDS011;39167;52.794;6.892;2022-10-19T05:48:45;6.03;;;2.08;;
53281;SDS011;39167;52.794;6.892;2022-10-19T05:51:12;7.68;;;2.17;;
53281;SDS011;39167;52.794;6.892;2022-10-19T05:53:39;8.77;;;2.13;;
53281;SDS011;39167;52.794;6.892;2022-10-19T05:56:06;6.93;;;2.30;;
53281;SDS011;39167;52.794;6.892;2022-10-19T05:58:33;4.82;;;2.00;;
53281;SDS011;39167;52.794;6.892;2022-10-19T06:01:00;9.88;;;2.58;;
53281;SDS011;39167;52.794;6.892;2022-10-19T06:03:26;8.10;;;3.05;;
53281;SDS011;39167;52.794;6.892;2022-10-19T06:05:52;8.75;;;2.70;;
53281;SDS011;39167;52.794;6.892;2022-10-19T06:08:19;11.38;;;2.70;;
53281;SDS011;39167;52.794;6.892;2022-10-19T06:10:46;11.63;;;3.05;;
53281;SDS011;39167;52.794;6.892;2022-10-19T06:13:14;13.15;;;2.80;;
53281;SDS011;39167;52.794;6.892;2022-10-19T06:15:40;10.93;;;2.50;;
53281;SDS011;39167;52.794;6.892;2022-10-19T06:18:06;9.45;;;2.60;;
53281;SDS011;39167;52.794;6.892;2022-10-19T06:20:34;8.48;;;2.90;;
53281;SDS011;39167;52.794;6.892;2022-10-19T06:23:00;9.35;;;3.20;;
53281;SDS011;39167;52.794;6.892;2022-10-19T06:25:26;9.65;;;2.45;;
53281;SDS011;39167;52.794;6.892;2022-10-19T06:27:53;8.18;;;2.75;;
53281;SDS011;39167;52.794;6.892;2022-10-19T06:30:19;9.45;;;2.60;;
53281;SDS011;39167;52.794;6.892;2022-10-19T06:32:44;8.63;;;2.33;;
53281;SDS011;39167;52.794;6.892;2022-10-19T06:35:10;12.50;;;3.13;;
53281;SDS011;39167;52.794;6.892;2022-10-19T06:37:36;7.80;;;2.20;;
53281;SDS011;39167;52.794;6.892;2022-10-19T06:40:02;10.38;;;2.70;;
53281;SDS011;39167;52.794;6.892;2022-10-19T06:42:28;9.60;;;2.47;;
53281;SDS011;39167;52.794;6.892;2022-10-19T06:44:53;11.50;;;2.50;;
53281;SDS011;39167;52.794;6.892;2022-10-19T06:47:19;8.80;;;2.95;;
53281;SDS011;39167;52.794;6.892;2022-10-19T06:49:45;5.93;;;2.40;;
53281;SDS011;39167;52.794;6.892;2022-10-19T06:52:10;11.68;;;2.97;;
53281;SDS011;39167;52.794;6.892;2022-10-19T06:54:36;8.63;;;3.30;;
53281;SDS011;39167;52.794;6.892;2022-10-19T06:57:02;9.13;;;3.03;;
53281;SDS011;39167;52.794;6.892;2022-10-19T06:59:27;6.35;;;3.13;;
53281;SDS011;39167;52.794;6.892;2022-10-19T07:01:53;13.77;;;3.47;;
53281;SDS011;39167;52.794;6.892;2022-10-19T07:04:19;13.85;;;4.28;;
53281;SDS011;39167;52.794;6.892;2022-10-19T07:06:44;9.18;;;3.75;;
53281;SDS011;39167;52.794;6.892;2022-10-19T07:09:10;11.45;;;4.05;;
53281;SDS011;39167;52.794;6.892;2022-10-19T07:11:36;14.52;;;3.33;;
53281;SDS011;39167;52.794;6.892;2022-10-19T07:14:02;11.82;;;2.88;;
53281;SDS011;39167;52.794;6.892;2022-10-19T07:16:28;9.25;;;2.83;;
53281;SDS011;39167;52.794;6.892;2022-10-19T07:18:54;9.02;;;2.90;;
53281;SDS011;39167;52.794;6.892;2022-10-19T07:21:21;5.72;;;2.47;;
53281;SDS011;39167;52.794;6.892;2022-10-19T07:23:47;15.65;;;3.25;;
53281;SDS011;39167;52.794;6.892;2022-10-19T07:26:14;11.82;;;2.63;;
53281;SDS011;39167;52.794;6.892;2022-10-19T07:28:48;10.35;;;2.22;;
53281;SDS011;39167;52.794;6.892;2022-10-19T07:31:16;12.10;;;2.35;;
53281;SDS011;39167;52.794;6.892;2022-10-19T07:33:46;11.13;;;2.30;;
53281;SDS011;39167;52.794;6.892;2022-10-19T07:36:19;12.13;;;2.58;;
53281;SDS011;39167;52.794;6.892;2022-10-19T07:38:46;9.63;;;2.13;;
53281;SDS011;39167;52.794;6.892;2022-10-19T07:41:13;9.95;;;1.80;;
53281;SDS011;39167;52.794;6.892;2022-10-19T07:43:41;6.65;;;1.67;;
53281;SDS011;39167;52.794;6.892;2022-10-19T07:46:09;14.73;;;2.88;;
53281;SDS011;39167;52.794;6.892;2022-10-19T07:48:36;9.35;;;1.80;;
53281;SDS011;39167;52.794;6.892;2022-10-19T07:51:04;19.85;;;2.20;;
53281;SDS011;39167;52.794;6.892;2022-10-19T07:53:31;10.55;;;2.22;;
53281;SDS011;39167;52.794;6.892;2022-10-19T07:58:33;13.63;;;2.08;;
53281;SDS011;39167;52.794;6.892;2022-10-19T08:01:04;10.95;;;1.98;;
53281;SDS011;39167;52.794;6.892;2022-10-19T08:03:35;13.00;;;2.25;;
53281;SDS011;39167;52.794;6.892;2022-10-19T08:06:05;12.93;;;2.58;;
53281;SDS011;39167;52.794;6.892;2022-10-19T08:08:32;8.27;;;1.83;;
53281;SDS011;39167;52.794;6.892;2022-10-19T08:11:07;8.20;;;1.90;;
53281;SDS011;39167;52.794;6.892;2022-10-19T08:13:35;13.25;;;2.08;;
53281;SDS011;39167;52.794;6.892;2022-10-19T08:16:01;13.55;;;2.72;;
53281;SDS011;39167;52.794;6.892;2022-10-19T08:18:28;16.48;;;2.25;;
53281;SDS011;39167;52.794;6.892;2022-10-19T08:20:54;11.05;;;2.45;;
53281;SDS011;39167;52.794;6.892;2022-10-19T08:23:20;11.68;;;2.38;;
53281;SDS011;39167;52.794;6.892;2022-10-19T08:25:47;12.23;;;2.17;;
53281;SDS011;39167;52.794;6.892;2022-10-19T08:28:13;11.15;;;2.03;;
53281;SDS011;39167;52.794;6.892;2022-10-19T08:30:39;13.85;;;1.98;;
53281;SDS011;39167;52.794;6.892;2022-10-19T08:33:05;10.48;;;2.25;;
53281;SDS011;39167;52.794;6.892;2022-10-19T08:35:32;11.07;;;2.00;;
53281;SDS011;39167;52.794;6.892;2022-10-19T08:37:59;13.52;;;2.50;;
53281;SDS011;39167;52.794;6.892;2022-10-19T08:40:26;9.98;;;2.08;;
53281;SDS011;39167;52.794;6.892;2022-10-19T08:43:09;14.82;;;2.22;;
53281;SDS011;39167;52.794;6.892;2022-10-19T08:45:50;13.05;;;2.70;;
53281;SDS011;39167;52.794;6.892;2022-10-19T08:48:38;11.52;;;1.90;;
53281;SDS011;39167;52.794;6.892;2022-10-19T08:51:07;12.50;;;1.98;;
53281;SDS011;39167;52.794;6.892;2022-10-19T08:53:53;9.65;;;1.50;;
53281;SDS011;39167;52.794;6.892;2022-10-19T08:56:34;8.32;;;1.45;;
53281;SDS011;39167;52.794;6.892;2022-10-19T09:01:51;12.90;;;1.90;;
53281;SDS011;39167;52.794;6.892;2022-10-19T09:04:32;6.70;;;1.17;;
53281;SDS011;39167;52.794;6.892;2022-10-19T09:07:05;7.88;;;1.75;;
53281;SDS011;39167;52.794;6.892;2022-10-19T09:10:03;12.23;;;1.60;;
53281;SDS011;39167;52.794;6.892;2022-10-19T09:12:36;5.70;;;1.60;;
53281;SDS011;39167;52.794;6.892;2022-10-19T09:17:59;13.25;;;1.80;;
53281;SDS011;39167;52.794;6.892;2022-10-19T09:20:36;10.27;;;1.63;;
53281;SDS011;39167;52.794;6.892;2022-10-19T09:25:53;6.53;;;1.27;;
53281;SDS011;39167;52.794;6.892;2022-10-19T09:31:05;11.90;;;1.58;;
53281;SDS011;39167;52.794;6.892;2022-10-19T09:33:37;9.13;;;1.58;;
53281;SDS011;39167;52.794;6.892;2022-10-19T09:36:05;6.97;;;1.80;;
53281;SDS011;39167;52.794;6.892;2022-10-19T09:38:32;12.95;;;2.40;;
53281;SDS011;39167;52.794;6.892;2022-10-19T09:41:06;7.53;;;1.73;;
53281;SDS011;39167;52.794;6.892;2022-10-19T09:43:45;6.38;;;1.58;;
53281;SDS011;39167;52.794;6.892;2022-10-19T09:46:42;12.95;;;1.50;;
53281;SDS011;39167;52.794;6.892;2022-10-19T09:49:12;9.65;;;2.17;;
53281;SDS011;39167;52.794;6.892;2022-10-19T09:51:59;9.90;;;1.55;;
53281;SDS011;39167;52.794;6.892;2022-10-19T09:54:31;4.88;;;1.27;;
53281;SDS011;39167;52.794;6.892;2022-10-19T09:56:57;8.93;;;2.08;;
53281;SDS011;39167;52.794;6.892;2022-10-19T09:59:24;8.02;;;1.63;;
53281;SDS011;39167;52.794;6.892;2022-10-19T10:01:59;10.80;;;1.70;;
53281;SDS011;39167;52.794;6.892;2022-10-19T10:04:34;8.90;;;1.33;;
53281;SDS011;39167;52.794;6.892;2022-10-19T10:07:00;11.55;;;2.28;;
53281;SDS011;39167;52.794;6.892;2022-10-19T10:09:28;9.10;;;1.73;;
53281;SDS011;39167;52.794;6.892;2022-10-19T10:11:55;7.28;;;1.70;;
53281;SDS011;39167;52.794;6.892;2022-10-19T10:16:56;7.63;;;1.50;;
53281;SDS011;39167;52.794;6.892;2022-10-19T10:19:27;7.32;;;1.60;;
53281;SDS011;39167;52.794;6.892;2022-10-19T10:21:54;7.22;;;1.60;;
53281;SDS011;39167;52.794;6.892;2022-10-19T10:24:28;10.20;;;1.98;;
53281;SDS011;39167;52.794;6.892;2022-10-19T10:26:56;9.57;;;1.63;;
53281;SDS011;39167;52.794;6.892;2022-10-19T10:29:24;8.20;;;1.73;;
53281;SDS011;39167;52.794;6.892;2022-10-19T10:34:40;5.28;;;1.75;;
53281;SDS011;39167;52.794;6.892;2022-10-19T10:37:06;9.05;;;2.20;;
53281;SDS011;39167;52.794;6.892;2022-10-19T10:39:40;13.90;;;2.75;;
53281;SDS011;39167;52.794;6.892;2022-10-19T10:42:08;9.30;;;1.70;;
53281;SDS011;39167;52.794;6.892;2022-10-19T10:44:43;10.20;;;1.63;;
53281;SDS011;39167;52.794;6.892;2022-10-19T10:47:13;6.65;;;1.40;;
53281;SDS011;39167;52.794;6.892;2022-10-19T10:49:40;10.73;;;1.52;;
53281;SDS011;39167;52.794;6.892;2022-10-19T10:52:12;6.10;;;1.63;;
53281;SDS011;39167;52.794;6.892;2022-10-19T10:54:40;11.88;;;1.98;;
53281;SDS011;39167;52.794;6.892;2022-10-19T10:57:42;7.17;;;1.27;;
53281;SDS011;39167;52.794;6.892;2022-10-19T11:00:11;8.07;;;1.50;;
53281;SDS011;39167;52.794;6.892;2022-10-19T11:02:47;6.97;;;1.40;;
53281;SDS011;39167;52.794;6.892;2022-10-19T11:05:17;7.47;;;1.58;;
53281;SDS011;39167;52.794;6.892;2022-10-19T11:07:50;6.97;;;1.80;;
53281;SDS011;39167;52.794;6.892;2022-10-19T11:10:29;5.03;;;1.40;;
53281;SDS011;39167;52.794;6.892;2022-10-19T11:16:26;5.45;;;1.20;;
53281;SDS011;39167;52.794;6.892;2022-10-19T11:18:58;6.43;;;1.40;;
53281;SDS011;39167;52.794;6.892;2022-10-19T11:30:23;7.07;;;1.37;;
53281;SDS011;39167;52.794;6.892;2022-10-19T11:33:06;9.50;;;1.63;;
53281;SDS011;39167;52.794;6.892;2022-10-19T11:35:47;5.25;;;1.20;;
53281;SDS011;39167;52.794;6.892;2022-10-19T11:44:16;5.88;;;1.40;;
53281;SDS011;39167;52.794;6.892;2022-10-19T11:46:54;8.30;;;1.70;;
53281;SDS011;39167;52.794;6.892;2022-10-19T12:00:18;8.68;;;1.42;;
53281;SDS011;39167;52.794;6.892;2022-10-19T12:05:32;6.43;;;1.50;;
53281;SDS011;39167;52.794;6.892;2022-10-19T12:08:35;4.55;;;1.60;;
53281;SDS011;39167;52.794;6.892;2022-10-19T12:11:26;6.43;;;1.73;;
53281;SDS011;39167;52.794;6.892;2022-10-19T12:14:13;7.88;;;1.98;;
53281;SDS011;39167;52.794;6.892;2022-10-19T12:16:43;6.88;;;2.38;;
53281;SDS011;39167;52.794;6.892;2022-10-19T12:21:47;9.30;;;2.65;;
53281;SDS011;39167;52.794;6.892;2022-10-19T12:24:19;5.90;;;2.60;;
53281;SDS011;39167;52.794;6.892;2022-10-19T12:26:47;9.70;;;2.60;;
53281;SDS011;39167;52.794;6.892;2022-10-19T12:29:17;11.40;;;3.05;;
53281;SDS011;39167;52.794;6.892;2022-10-19T12:31:48;8.93;;;2.28;;
53281;SDS011;39167;52.794;6.892;2022-10-19T12:37:21;9.57;;;2.33;;
53281;SDS011;39167;52.794;6.892;2022-10-19T12:42:49;8.30;;;2.35;;
53281;SDS011;39167;52.794;6.892;2022-10-19T12:53:58;11.52;;;2.72;;
53281;SDS011;39167;52.794;6.892;2022-10-19T12:56:01;7.78;;;2.20;;
53281;SDS011;39167;52.794;6.892;2022-10-19T13:01:39;9.07;;;2.20;;
53281;SDS011;39167;52.794;6.892;2022-10-19T13:06:40;14.63;;;2.50;;
53281;SDS011;39167;52.794;6.892;2022-10-19T13:09:17;8.52;;;2.53;;
53281;SDS011;39167;52.794;6.892;2022-10-19T13:14:53;7.32;;;2.80;;
53281;SDS011;39167;52.794;6.892;2022-10-19T13:22:38;8.77;;;2.83;;
53281;SDS011;39167;52.794;6.892;2022-10-19T13:31:21;7.43;;;2.78;;
53281;SDS011;39167;52.794;6.892;2022-10-19T13:38:28;5.18;;;2.72;;
53281;SDS011;39167;52.794;6.892;2022-10-19T13:52:32;6.75;;;2.97;;
53281;SDS011;39167;52.794;6.892;2022-10-19T14:01:42;7.97;;;2.60;;
53281;SDS011;39167;52.794;6.892;2022-10-19T14:03:53;7.70;;;2.47;;
53281;SDS011;39167;52.794;6.892;2022-10-19T14:06:42;5.93;;;3.05;;
53281;SDS011;39167;52.794;6.892;2022-10-19T14:12:14;9.68;;;3.88;;
53281;SDS011;39167;52.794;6.892;2022-10-19T14:14:45;8.85;;;3.92;;
53281;SDS011;39167;52.794;6.892;2022-10-19T14:17:29;7.75;;;4.15;;
53281;SDS011;39167;52.794;6.892;2022-10-19T14:19:58;10.45;;;4.88;;
53281;SDS011;39167;52.794;6.892;2022-10-19T14:22:33;10.70;;;3.95;;
53281;SDS011;39167;52.794;6.892;2022-10-19T14:25:05;10.45;;;2.88;;
53281;SDS011;39167;52.794;6.892;2022-10-19T14:27:42;8.75;;;2.50;;
53281;SDS011;39167;52.794;6.892;2022-10-19T14:30:22;6.45;;;2.22;;
53281;SDS011;39167;52.794;6.892;2022-10-19T14:32:50;5.50;;;1.90;;
53281;SDS011;39167;52.794;6.892;2022-10-19T14:35:21;8.48;;;2.22;;
53281;SDS011;39167;52.794;6.892;2022-10-19T14:37:51;8.35;;;2.33;;
53281;SDS011;39167;52.794;6.892;2022-10-19T14:42:48;7.53;;;2.40;;
53281;SDS011;39167;52.794;6.892;2022-10-19T14:45:18;6.07;;;1.92;;
53281;SDS011;39167;52.794;6.892;2022-10-19T14:47:51;5.10;;;1.48;;
53281;SDS011;39167;52.794;6.892;2022-10-19T14:50:18;5.25;;;1.88;;
53281;SDS011;39167;52.794;6.892;2022-10-19T14:52:46;6.95;;;1.90;;
53281;SDS011;39167;52.794;6.892;2022-10-19T14:55:16;6.07;;;1.67;;
53281;SDS011;39167;52.794;6.892;2022-10-19T14:57:44;4.45;;;1.50;;
53281;SDS011;39167;52.794;6.892;2022-10-19T15:00:20;4.18;;;1.60;;
53281;SDS011;39167;52.794;6.892;2022-10-19T15:02:51;8.00;;;1.90;;
53281;SDS011;39167;52.794;6.892;2022-10-19T15:05:28;5.28;;;1.45;;
53281;SDS011;39167;52.794;6.892;2022-10-19T15:07:57;10.48;;;2.13;;
53281;SDS011;39167;52.794;6.892;2022-10-19T15:10:41;9.75;;;2.25;;
53281;SDS011;39167;52.794;6.892;2022-10-19T15:13:31;7.80;;;1.88;;
53281;SDS011;39167;52.794;6.892;2022-10-19T15:15:58;10.13;;;1.95;;
53281;SDS011;39167;52.794;6.892;2022-10-19T15:18:24;7.47;;;2.45;;
53281;SDS011;39167;52.794;6.892;2022-10-19T15:21:04;9.07;;;2.63;;
53281;SDS011;39167;52.794;6.892;2022-10-19T15:23:43;9.65;;;2.40;;
53281;SDS011;39167;52.794;6.892;2022-10-19T15:26:20;7.68;;;1.88;;
53281;SDS011;39167;52.794;6.892;2022-10-19T15:28:53;4.78;;;1.42;;
53281;SDS011;39167;52.794;6.892;2022-10-19T15:31:30;5.43;;;1.23;;
53281;SDS011;39167;52.794;6.892;2022-10-19T15:33:57;7.45;;;1.48;;
53281;SDS011;39167;52.794;6.892;2022-10-19T15:36:25;10.30;;;2.35;;
53281;SDS011;39167;52.794;6.892;2022-10-19T15:41:35;10.57;;;3.50;;
53281;SDS011;39167;52.794;6.892;2022-10-19T15:44:03;8.70;;;2.72;;
53281;SDS011;39167;52.794;6.892;2022-10-19T15:54:11;7.72;;;1.50;;
53281;SDS011;39167;52.794;6.892;2022-10-19T15:56:41;8.00;;;1.60;;
53281;SDS011;39167;52.794;6.892;2022-10-19T15:59:12;7.43;;;1.58;;
53281;SDS011;39167;52.794;6.892;2022-10-19T16:01:43;14.13;;;2.00;;
53281;SDS011;39167;52.794;6.892;2022-10-19T16:04:09;3.90;;;1.67;;
53281;SDS011;39167;52.794;6.892;2022-10-19T16:06:36;5.63;;;1.23;;
53281;SDS011;39167;52.794;6.892;2022-10-19T16:09:04;7.20;;;1.33;;
53281;SDS011;39167;52.794;6.892;2022-10-19T16:11:31;4.53;;;1.27;;
53281;SDS011;39167;52.794;6.892;2022-10-19T16:13:58;5.97;;;1.25;;
53281;SDS011;39167;52.794;6.892;2022-10-19T16:16:25;5.45;;;1.20;;
53281;SDS011;39167;52.794;6.892;2022-10-19T16:21:23;5.53;;;1.40;;
53281;SDS011;39167;52.794;6.892;2022-10-19T16:23:52;9.30;;;1.60;;
53281;SDS011;39167;52.794;6.892;2022-10-19T16:26:18;5.65;;;1.50;;
53281;SDS011;39167;52.794;6.892;2022-10-19T16:28:45;3.97;;;1.58;;
53281;SDS011;39167;52.794;6.892;2022-10-19T16:31:12;8.13;;;1.60;;
53281;SDS011;39167;52.794;6.892;2022-10-19T16:33:39;6.28;;;1.83;;
53281;SDS011;39167;52.794;6.892;2022-10-19T16:36:05;8.48;;;2.03;;
53281;SDS011;39167;52.794;6.892;2022-10-19T16:38:32;7.90;;;2.05;;
53281;SDS011;39167;52.794;6.892;2022-10-19T16:40:59;8.57;;;1.92;;
53281;SDS011;39167;52.794;6.892;2022-10-19T16:43:26;7.50;;;2.13;;
53281;SDS011;39167;52.794;6.892;2022-10-19T16:45:52;6.40;;;1.95;;
53281;SDS011;39167;52.794;6.892;2022-10-19T16:48:17;6.53;;;2.42;;
53281;SDS011;39167;52.794;6.892;2022-10-19T16:50:43;9.20;;;2.30;;
53281;SDS011;39167;52.794;6.892;2022-10-19T16:53:09;6.40;;;2.35;;
53281;SDS011;39167;52.794;6.892;2022-10-19T16:55:35;7.28;;;2.42;;
53281;SDS011;39167;52.794;6.892;2022-10-19T16:58:03;5.07;;;2.50;;
53281;SDS011;39167;52.794;6.892;2022-10-19T17:00:29;7.03;;;2.58;;
53281;SDS011;39167;52.794;6.892;2022-10-19T17:02:55;10.95;;;2.78;;
53281;SDS011;39167;52.794;6.892;2022-10-19T17:05:21;6.90;;;2.80;;
53281;SDS011;39167;52.794;6.892;2022-10-19T17:07:47;4.55;;;2.67;;
53281;SDS011;39167;52.794;6.892;2022-10-19T17:10:12;8.10;;;3.00;;
53281;SDS011;39167;52.794;6.892;2022-10-19T17:12:40;6.82;;;2.80;;
53281;SDS011;39167;52.794;6.892;2022-10-19T17:15:06;9.77;;;3.22;;
53281;SDS011;39167;52.794;6.892;2022-10-19T17:17:32;7.60;;;3.70;;
53281;SDS011;39167;52.794;6.892;2022-10-19T17:19:58;4.60;;;2.70;;
53281;SDS011;39167;52.794;6.892;2022-10-19T17:22:24;5.30;;;3.30;;
53281;SDS011;39167;52.794;6.892;2022-10-19T17:24:50;6.43;;;3.20;;
53281;SDS011;39167;52.794;6.892;2022-10-19T17:27:15;6.32;;;3.28;;
53281;SDS011;39167;52.794;6.892;2022-10-19T17:29:41;9.45;;;3.97;;
53281;SDS011;39167;52.794;6.892;2022-10-19T17:32:07;10.15;;;4.07;;
53281;SDS011;39167;52.794;6.892;2022-10-19T17:34:33;8.68;;;3.63;;
53281;SDS011;39167;52.794;6.892;2022-10-19T17:36:58;9.80;;;3.67;;